Time,TemperatureF,DewpointF,PressureIn,WindDirection,WindDirectionDegrees,WindSpeedMPH,WindSpeedGustMPH,Humidity,HourlyPrecipIn,Conditions,Clouds,dailyrainin,SoftwareType,DateUTC
2013-02-05 00:00:00,54.3,51.1,29.86,NNE,30,0.0,0.0,89,0.00,,,0.00,WUHU216DAVISVP2,2013-02-05 06:00:00,
2013-02-05 00:05:00,54.3,51.4,29.86,NNE,30,0.0,0.0,90,0.00,,,0.00,WUHU216DAVISVP2,2013-02-05 06:05:00,
2013-02-05 00:10:00,54.4,51.8,29.86,NNE,30,0.0,0.0,91,0.00,,,0.00,WUHU216DAVISVP2,2013-02-05 06:10:00,
2013-02-05 00:15:00,54.3,51.4,29.86,NNE,30,0.0,0.0,90,0.00,,,0.00,WUHU216DAVISVP2,2013-02-05 06:15:00,
2013-02-05 00:20:00,54.2,51.3,29.86,NNE,30,0.0,0.0,90,0.00,,,0.00,WUHU216DAVISVP2,2013-02-05 06:20:00,
2013-02-05 00:25:00,54.0,51.1,29.86,NNE,30,0.0,0.0,90,0.00,,,0.00,WUHU216DAVISVP2,2013-02-05 06:25:00,
2013-02-05 00:30:00,53.8,50.6,29.86,NNE,30,0.0,0.0,89,0.00,,,0.00,WUHU216DAVISVP2,2013-02-05 06:30:00,
2013-02-05 00:35:00,53.5,50.6,29.86,NNE,30,0.0,0.0,90,0.00,,,0.00,WUHU216DAVISVP2,2013-02-05 06:35:00,
2013-02-05 00:40:00,53.3,50.4,29.86,NNE,30,0.0,0.0,90,0.00,,,0.00,WUHU216DAVISVP2,2013-02-05 06:40:00,
2013-02-05 00:45:00,53.1,50.2,29.85,NNE,30,0.0,0.0,90,0.00,,,0.00,WUHU216DAVISVP2,2013-02-05 06:45:00,
2013-02-05 00:50:00,52.9,50.0,29.85,NNE,30,0.0,0.0,90,0.00,,,0.00,WUHU216DAVISVP2,2013-02-05 06:50:00,
2013-02-05 00:55:00,52.8,50.2,29.86,NNE,30,0.0,0.0,91,0.00,,,0.00,WUHU216DAVISVP2,2013-02-05 06:55:00,
2013-02-05 01:00:00,52.8,50.5,29.86,NNE,30,0.0,0.0,92,0.00,,,0.00,WUHU216DAVISVP2,2013-02-05 07:00:00,
2013-02-05 01:05:00,52.9,50.6,29.86,NNE,30,0.0,0.0,92,0.00,,,0.00,WUHU216DAVISVP2,2013-02-05 07:05:00,
2013-02-05 01:10:00,52.9,50.6,29.86,NNE,30,0.0,0.0,92,0.00,,,0.00,WUHU216DAVISVP2,2013-02-05 07:10:00,
2013-02-05 01:15:00,53.1,51.1,29.86,NNE,30,0.0,0.0,93,0.00,,,0.00,WUHU216DAVISVP2,2013-02-05 07:15:00,
2013-02-05 01:20:00,53.1,50.8,29.86,NNE,30,0.0,0.0,92,0.00,,,0.00,WUHU216DAVISVP2,2013-02-05 07:20:00,
2013-02-05 01:25:00,52.9,50.0,29.86,NNE,30,0.0,0.0,90,0.00,,,0.00,WUHU216DAVISVP2,2013-02-05 07:25:00,
2013-02-05 01:30:00,52.7,50.1,29.86,NNE,30,0.0,0.0,91,0.00,,,0.00,WUHU216DAVISVP2,2013-02-05 07:30:00,
2013-02-05 01:35:00,52.5,49.9,29.86,NNE,30,0.0,0.0,91,0.00,,,0.00,WUHU216DAVISVP2,2013-02-05 07:35:00,
2013-02-05 01:40:00,52.4,50.1,29.86,NNE,30,0.0,0.0,92,0.00,,,0.00,WUHU216DAVISVP2,2013-02-05 07:40:00,
2013-02-05 01:45:00,52.3,50.3,29.86,NNE,30,0.0,0.0,93,0.00,,,0.00,WUHU216DAVISVP2,2013-02-05 07:45:00,
2013-02-05 01:50:00,52.4,50.4,29.86,NNE,30,0.0,0.0,93,0.00,,,0.00,WUHU216DAVISVP2,2013-02-05 07:50:00,
2013-02-05 01:55:00,52.5,50.8,29.86,NNE,30,0.0,0.0,94,0.00,,,0.00,WUHU216DAVISVP2,2013-02-05 07:55:00,
2013-02-05 02:00:00,52.4,50.1,29.86,NNE,30,0.0,0.0,92,0.00,,,0.00,WUHU216DAVISVP2,2013-02-05 08:00:00,
2013-02-05 02:05:00,52.0,49.5,29.86,NNE,30,0.0,0.0,91,0.00,,,0.00,WUHU216DAVISVP2,2013-02-05 08:05:00,
2013-02-05 02:10:00,51.8,49.2,29.86,NNE,30,0.0,0.0,91,0.00,,,0.00,WUHU216DAVISVP2,2013-02-05 08:10:00,
2013-02-05 02:15:00,51.6,49.0,29.86,NNE,30,0.0,0.0,91,0.00,,,0.00,WUHU216DAVISVP2,2013-02-05 08:15:00,
2013-02-05 02:20:00,51.4,49.1,29.86,NNE,30,0.0,0.0,92,0.00,,,0.00,WUHU216DAVISVP2,2013-02-05 08:20:00,
2013-02-05 02:25:00,51.4,49.4,29.86,NNE,30,0.0,0.0,93,0.00,,,0.00,WUHU216DAVISVP2,2013-02-05 08:25:00,
2013-02-05 02:30:00,51.6,49.9,29.85,NNE,30,0.0,0.0,94,0.00,,,0.00,WUHU216DAVISVP2,2013-02-05 08:30:00,
2013-02-05 02:35:00,52.1,50.7,29.85,NNE,30,0.0,0.0,95,0.00,,,0.00,WUHU216DAVISVP2,2013-02-05 08:35:00,
2013-02-05 02:40:00,52.9,51.8,29.86,NNE,30,0.0,0.0,96,0.00,,,0.00,WUHU216DAVISVP2,2013-02-05 08:40:00,
2013-02-05 02:45:00,53.9,52.8,29.86,WNW,297,2.0,2.0,96,0.00,,,0.00,WUHU216DAVISVP2,2013-02-05 08:45:00,
2013-02-05 02:50:00,54.8,53.6,29.85,WNW,298,0.0,2.0,96,0.00,,,0.00,WUHU216DAVISVP2,2013-02-05 08:50:00,
2013-02-05 02:55:00,56.0,54.8,29.85,WNW,292,0.0,2.0,96,0.00,,,0.00,WUHU216DAVISVP2,2013-02-05 08:55:00,
2013-02-05 03:00:00,56.4,55.2,29.85,WNW,292,0.0,2.0,96,0.00,,,0.00,WUHU216DAVISVP2,2013-02-05 09:00:00,
2013-02-05 03:05:00,55.7,54.5,29.86,SSW,201,0.0,1.0,96,0.00,,,0.00,WUHU216DAVISVP2,2013-02-05 09:05:00,
2013-02-05 03:10:00,55.9,54.7,29.86,SSW,201,0.0,1.0,96,0.00,,,0.00,WUHU216DAVISVP2,2013-02-05 09:10:00,
2013-02-05 03:15:00,56.5,55.3,29.86,SSW,201,0.0,0.0,96,0.00,,,0.00,WUHU216DAVISVP2,2013-02-05 09:15:00,
2013-02-05 03:20:00,57.1,55.9,29.86,SSW,201,0.0,0.0,96,0.00,,,0.00,WUHU216DAVISVP2,2013-02-05 09:20:00,
2013-02-05 03:25:00,57.9,56.7,29.86,SSW,212,0.0,1.0,96,0.00,,,0.00,WUHU216DAVISVP2,2013-02-05 09:25:00,
2013-02-05 03:30:00,58.4,57.3,29.86,SSW,213,0.0,1.0,96,0.00,,,0.00,WUHU216DAVISVP2,2013-02-05 09:30:00,
2013-02-05 03:35:00,58.6,57.8,29.86,SSW,213,0.0,1.0,97,0.00,,,0.00,WUHU216DAVISVP2,2013-02-05 09:35:00,
2013-02-05 03:40:00,58.9,58.1,29.86,SSW,207,0.0,1.0,97,0.00,,,0.00,WUHU216DAVISVP2,2013-02-05 09:40:00,
2013-02-05 03:45:00,59.1,58.0,29.86,WSW,239,0.0,2.0,96,0.00,,,0.00,WUHU216DAVISVP2,2013-02-05 09:45:00,
2013-02-05 03:50:00,59.4,58.5,29.86,SW,218,0.0,2.0,97,0.00,,,0.00,WUHU216DAVISVP2,2013-02-05 09:50:00,
2013-02-05 03:56:00,59.7,58.8,29.86,SW,218,0.0,2.0,97,0.00,,,0.00,WUHU216DAVISVP2,2013-02-05 09:56:00,
2013-02-05 04:01:00,59.8,58.9,29.86,SW,218,0.0,2.0,97,0.00,,,0.00,WUHU216DAVISVP2,2013-02-05 10:01:00,
2013-02-05 04:06:00,60.0,59.1,29.85,SW,218,0.0,1.0,97,0.00,,,0.00,WUHU216DAVISVP2,2013-02-05 10:06:00,
2013-02-05 04:11:00,60.0,59.1,29.85,SW,219,0.0,1.0,97,0.00,,,0.00,WUHU216DAVISVP2,2013-02-05 10:11:00,
2013-02-05 04:16:00,60.0,59.1,29.85,SW,219,0.0,1.0,97,0.00,,,0.00,WUHU216DAVISVP2,2013-02-05 10:16:00,
2013-02-05 04:21:00,60.1,59.2,29.85,SW,219,0.0,1.0,97,0.00,,,0.00,WUHU216DAVISVP2,2013-02-05 10:21:00,
2013-02-05 04:26:00,60.1,59.2,29.85,SW,219,0.0,0.0,97,0.00,,,0.00,WUHU216DAVISVP2,2013-02-05 10:26:00,
2013-02-05 04:31:00,60.1,59.2,29.86,SW,219,0.0,0.0,97,0.00,,,0.00,WUHU216DAVISVP2,2013-02-05 10:31:00,
2013-02-05 04:36:00,60.0,59.1,29.86,SW,219,0.0,1.0,97,0.00,,,0.00,WUHU216DAVISVP2,2013-02-05 10:36:00,
2013-02-05 04:41:00,59.9,59.0,29.86,SW,219,0.0,1.0,97,0.00,,,0.00,WUHU216DAVISVP2,2013-02-05 10:41:00,
2013-02-05 04:46:00,59.8,58.9,29.86,SSE,168,0.0,1.0,97,0.00,,,0.00,WUHU216DAVISVP2,2013-02-05 10:46:00,
2013-02-05 04:51:00,59.6,58.7,29.86,SSE,167,0.0,1.0,97,0.00,,,0.00,WUHU216DAVISVP2,2013-02-05 10:51:00,
2013-02-05 04:56:00,59.4,58.5,29.86,SSE,168,0.0,1.0,97,0.00,,,0.00,WUHU216DAVISVP2,2013-02-05 10:56:00,
2013-02-05 05:01:00,59.3,58.1,29.86,SSE,167,0.0,1.0,96,0.00,,,0.00,WUHU216DAVISVP2,2013-02-05 11:01:00,
2013-02-05 05:06:00,59.1,57.9,29.86,SSE,167,0.0,1.0,96,0.00,,,0.00,WUHU216DAVISVP2,2013-02-05 11:06:00,
2013-02-05 05:11:00,59.0,57.8,29.86,SSE,167,0.0,1.0,96,0.00,,,0.00,WUHU216DAVISVP2,2013-02-05 11:11:00,
2013-02-05 05:16:00,58.7,57.5,29.87,SSE,168,0.0,0.0,96,0.00,,,0.00,WUHU216DAVISVP2,2013-02-05 11:16:00,
2013-02-05 05:21:00,58.4,57.2,29.87,SSE,167,0.0,0.0,96,0.00,,,0.00,WUHU216DAVISVP2,2013-02-05 11:21:00,
2013-02-05 05:26:00,58.2,56.7,29.87,SSE,168,0.0,0.0,95,0.00,,,0.00,WUHU216DAVISVP2,2013-02-05 11:26:00,
2013-02-05 05:31:00,58.0,56.8,29.87,SSE,168,0.0,0.0,96,0.00,,,0.00,WUHU216DAVISVP2,2013-02-05 11:31:00,
2013-02-05 05:36:00,57.9,56.7,29.87,SSE,167,0.0,0.0,96,0.00,,,0.00,WUHU216DAVISVP2,2013-02-05 11:36:00,
2013-02-05 05:41:00,57.8,56.6,29.87,SSE,167,0.0,0.0,96,0.00,,,0.00,WUHU216DAVISVP2,2013-02-05 11:41:00,
2013-02-05 05:46:00,57.6,56.4,29.87,SSE,168,0.0,0.0,96,0.00,,,0.00,WUHU216DAVISVP2,2013-02-05 11:46:00,
2013-02-05 05:51:00,57.5,56.3,29.87,SSE,168,0.0,0.0,96,0.00,,,0.00,WUHU216DAVISVP2,2013-02-05 11:51:00,
2013-02-05 05:56:00,57.4,56.2,29.88,SSE,168,0.0,0.0,96,0.00,,,0.00,WUHU216DAVISVP2,2013-02-05 11:56:00,
2013-02-05 06:01:00,57.2,56.0,29.88,SSE,168,0.0,0.0,96,0.00,,,0.00,WUHU216DAVISVP2,2013-02-05 12:01:00,
2013-02-05 06:06:00,56.7,55.2,29.88,SSE,168,0.0,0.0,95,0.00,,,0.00,WUHU216DAVISVP2,2013-02-05 12:06:00,
2013-02-05 06:11:00,56.2,54.7,29.88,SSE,168,0.0,0.0,95,0.00,,,0.00,WUHU216DAVISVP2,2013-02-05 12:11:00,
2013-02-05 06:16:00,55.4,53.7,29.88,SSE,168,0.0,0.0,94,0.00,,,0.00,WUHU216DAVISVP2,2013-02-05 12:16:00,
2013-02-05 06:21:00,55.0,53.6,29.89,SSE,167,0.0,0.0,95,0.00,,,0.00,WUHU216DAVISVP2,2013-02-05 12:21:00,
2013-02-05 06:26:00,54.9,53.5,29.89,SSE,167,0.0,0.0,95,0.00,,,0.00,WUHU216DAVISVP2,2013-02-05 12:26:00,
2013-02-05 06:31:00,54.8,53.6,29.89,SSE,168,0.0,0.0,96,0.00,,,0.00,WUHU216DAVISVP2,2013-02-05 12:31:00,
2013-02-05 06:36:00,54.0,52.3,29.89,WNW,296,0.0,1.0,94,0.00,,,0.00,WUHU216DAVISVP2,2013-02-05 12:36:00,
2013-02-05 06:41:00,53.6,52.2,29.89,WNW,297,0.0,1.0,95,0.00,,,0.00,WUHU216DAVISVP2,2013-02-05 12:41:00,
2013-02-05 06:46:00,53.6,52.5,29.89,WNW,297,0.0,1.0,96,0.00,,,0.00,WUHU216DAVISVP2,2013-02-05 12:46:00,
2013-02-05 06:51:00,53.5,52.4,29.89,WNW,297,0.0,1.0,96,0.00,,,0.00,WUHU216DAVISVP2,2013-02-05 12:51:00,
2013-02-05 06:56:00,53.3,52.2,29.90,WNW,297,0.0,1.0,96,0.00,,,0.00,WUHU216DAVISVP2,2013-02-05 12:56:00,
2013-02-05 07:01:00,53.0,51.6,29.90,WNW,297,0.0,1.0,95,0.00,,,0.00,WUHU216DAVISVP2,2013-02-05 13:01:00,
2013-02-05 07:06:00,52.8,51.7,29.90,WNW,297,0.0,1.0,96,0.00,,,0.00,WUHU216DAVISVP2,2013-02-05 13:06:00,
2013-02-05 07:11:00,52.7,51.6,29.90,WNW,297,0.0,0.0,96,0.00,,,0.00,WUHU216DAVISVP2,2013-02-05 13:11:00,
2013-02-05 07:16:00,52.9,51.8,29.90,WNW,297,0.0,0.0,96,0.00,,,0.00,WUHU216DAVISVP2,2013-02-05 13:16:00,
2013-02-05 07:21:00,52.9,51.8,29.90,WNW,297,0.0,0.0,96,0.00,,,0.00,WUHU216DAVISVP2,2013-02-05 13:21:00,
2013-02-05 07:26:00,52.7,51.6,29.91,WNW,297,0.0,0.0,96,0.00,,,0.00,WUHU216DAVISVP2,2013-02-05 13:26:00,
2013-02-05 07:31:00,52.6,51.5,29.91,WNW,297,0.0,0.0,96,0.00,,,0.00,WUHU216DAVISVP2,2013-02-05 13:31:00,
2013-02-05 07:36:00,52.2,51.1,29.91,WNW,296,0.0,0.0,96,0.00,,,0.00,WUHU216DAVISVP2,2013-02-05 13:36:00,
2013-02-05 07:41:00,52.4,51.3,29.92,WNW,296,0.0,0.0,96,0.00,,,0.00,WUHU216DAVISVP2,2013-02-05 13:41:00,
2013-02-05 07:46:00,52.4,51.3,29.91,WNW,296,0.0,0.0,96,0.00,,,0.00,WUHU216DAVISVP2,2013-02-05 13:46:00,
2013-02-05 07:51:00,52.4,51.3,29.91,WNW,296,0.0,0.0,96,0.00,,,0.00,WUHU216DAVISVP2,2013-02-05 13:51:00,
2013-02-05 07:56:00,52.3,50.9,29.92,WNW,296,0.0,0.0,95,0.00,,,0.00,WUHU216DAVISVP2,2013-02-05 13:56:00,
2013-02-05 08:01:00,52.7,51.6,29.92,WNW,296,0.0,0.0,96,0.00,,,0.00,WUHU216DAVISVP2,2013-02-05 14:01:00,
2013-02-05 08:06:00,53.1,52.0,29.92,WNW,296,0.0,0.0,96,0.00,,,0.00,WUHU216DAVISVP2,2013-02-05 14:06:00,
2013-02-05 08:11:00,53.5,52.4,29.92,WNW,296,0.0,0.0,96,0.00,,,0.00,WUHU216DAVISVP2,2013-02-05 14:11:00,
2013-02-05 08:16:00,54.0,52.9,29.92,WNW,296,0.0,0.0,96,0.00,,,0.00,WUHU216DAVISVP2,2013-02-05 14:16:00,
2013-02-05 08:21:00,54.5,53.3,29.91,WNW,296,0.0,0.0,96,0.00,,,0.00,WUHU216DAVISVP2,2013-02-05 14:21:00,
2013-02-05 08:26:00,55.1,53.9,29.92,WNW,296,0.0,0.0,96,0.00,,,0.00,WUHU216DAVISVP2,2013-02-05 14:26:00,
2013-02-05 08:31:00,55.4,53.7,29.92,WNW,295,0.0,2.0,94,0.00,,,0.00,WUHU216DAVISVP2,2013-02-05 14:31:00,
2013-02-05 08:36:00,55.8,53.2,29.92,NW,310,2.0,2.0,91,0.00,,,0.00,WUHU216DAVISVP2,2013-02-05 14:36:00,
2013-02-05 08:41:00,56.4,53.2,29.92,WNW,288,3.0,3.0,89,0.00,,,0.00,WUHU216DAVISVP2,2013-02-05 14:41:00,
2013-02-05 08:46:00,57.2,52.1,29.93,WNW,284,3.0,5.0,83,0.00,,,0.00,WUHU216DAVISVP2,2013-02-05 14:46:00,
2013-02-05 08:51:00,57.9,52.8,29.93,NW,304,3.0,5.0,83,0.00,,,0.00,WUHU216DAVISVP2,2013-02-05 14:51:00,
2013-02-05 08:56:00,58.6,52.2,29.93,WNW,292,3.0,6.0,79,0.00,,,0.00,WUHU216DAVISVP2,2013-02-05 14:56:00,
2013-02-05 09:01:00,59.2,51.7,29.93,NNW,327,2.0,6.0,76,0.00,,,0.00,WUHU216DAVISVP2,2013-02-05 15:01:00,
2013-02-05 09:06:00,59.7,52.6,29.93,NNW,330,1.0,6.0,77,0.00,,,0.00,WUHU216DAVISVP2,2013-02-05 15:06:00,
2013-02-05 09:11:00,60.2,51.6,29.94,WNW,298,0.0,6.0,73,0.00,,,0.00,WUHU216DAVISVP2,2013-02-05 15:11:00,
2013-02-05 09:16:00,60.8,51.5,29.94,NNE,18,1.0,5.0,71,0.00,,,0.00,WUHU216DAVISVP2,2013-02-05 15:16:00,
2013-02-05 09:21:00,61.2,51.9,29.94,NNW,344,2.0,4.0,71,0.00,,,0.00,WUHU216DAVISVP2,2013-02-05 15:21:00,
2013-02-05 09:26:00,61.7,52.0,29.94,NNE,24,0.0,4.0,70,0.00,,,0.00,WUHU216DAVISVP2,2013-02-05 15:26:00,
2013-02-05 09:31:00,62.1,52.7,29.94,NNE,20,3.0,4.0,71,0.00,,,0.00,WUHU216DAVISVP2,2013-02-05 15:31:00,
2013-02-05 09:36:00,62.5,52.7,29.94,NE,34,0.0,4.0,70,0.00,,,0.00,WUHU216DAVISVP2,2013-02-05 15:36:00,
2013-02-05 09:41:00,63.1,53.3,29.95,NNE,20,1.0,4.0,70,0.00,,,0.00,WUHU216DAVISVP2,2013-02-05 15:41:00,
2013-02-05 09:46:00,63.6,52.6,29.95,NNE,19,3.0,5.0,67,0.00,,,0.00,WUHU216DAVISVP2,2013-02-05 15:46:00,
2013-02-05 09:51:00,64.1,52.7,29.95,NNE,12,2.0,5.0,66,0.00,,,0.00,WUHU216DAVISVP2,2013-02-05 15:51:00,
2013-02-05 09:56:00,64.7,52.4,29.95,NNE,25,1.0,5.0,64,0.00,,,0.00,WUHU216DAVISVP2,2013-02-05 15:56:00,
2013-02-05 10:01:00,65.2,52.5,29.95,ENE,73,3.0,5.0,63,0.00,,,0.00,WUHU216DAVISVP2,2013-02-05 16:01:00,
2013-02-05 10:06:00,65.9,51.3,29.95,NE,43,2.0,4.0,59,0.00,,,0.00,WUHU216DAVISVP2,2013-02-05 16:06:00,
2013-02-05 10:11:00,66.7,51.5,29.95,NNE,19,2.0,5.0,58,0.00,,,0.00,WUHU216DAVISVP2,2013-02-05 16:11:00,
2013-02-05 10:16:00,67.4,51.3,29.95,North,355,2.0,5.0,56,0.00,,,0.00,WUHU216DAVISVP2,2013-02-05 16:16:00,
2013-02-05 10:21:00,68.1,50.3,29.96,NNW,335,0.0,5.0,53,0.00,,,0.00,WUHU216DAVISVP2,2013-02-05 16:21:00,
2013-02-05 10:26:00,68.9,50.0,29.95,North,5,3.0,5.0,51,0.00,,,0.00,WUHU216DAVISVP2,2013-02-05 16:26:00,
2013-02-05 10:32:00,69.9,49.9,29.95,NNE,23,4.0,5.0,49,0.00,,,0.00,WUHU216DAVISVP2,2013-02-05 16:32:00,
2013-02-05 10:36:00,70.7,48.9,29.95,NW,308,3.0,5.0,46,0.00,,,0.00,WUHU216DAVISVP2,2013-02-05 16:36:00,
2013-02-05 10:41:00,70.7,48.9,29.95,NNE,14,2.0,5.0,46,0.00,,,0.00,WUHU216DAVISVP2,2013-02-05 16:41:00,
2013-02-05 10:46:00,70.9,48.5,29.96,NNW,335,0.0,4.0,45,0.00,,,0.00,WUHU216DAVISVP2,2013-02-05 16:46:00,
2013-02-05 10:51:00,71.2,48.7,29.96,North,10,1.0,4.0,45,0.00,,,0.00,WUHU216DAVISVP2,2013-02-05 16:51:00,
2013-02-05 10:56:00,71.6,49.1,29.96,NNE,13,2.0,3.0,45,0.00,,,0.00,WUHU216DAVISVP2,2013-02-05 16:56:00,
2013-02-05 11:01:00,72.0,50.1,29.95,WNW,301,2.0,4.0,46,0.00,,,0.00,WUHU216DAVISVP2,2013-02-05 17:01:00,
2013-02-05 11:06:00,72.5,48.7,29.95,North,9,2.0,6.0,43,0.00,,,0.00,WUHU216DAVISVP2,2013-02-05 17:06:00,
2013-02-05 11:11:00,73.1,48.6,29.95,North,9,0.0,6.0,42,0.00,,,0.00,WUHU216DAVISVP2,2013-02-05 17:11:00,
2013-02-05 11:16:00,73.6,47.7,29.96,NE,54,1.0,6.0,40,0.00,,,0.00,WUHU216DAVISVP2,2013-02-05 17:16:00,
2013-02-05 11:21:00,74.2,46.8,29.95,NW,314,0.0,6.0,38,0.00,,,0.00,WUHU216DAVISVP2,2013-02-05 17:21:00,
2013-02-05 11:27:00,74.2,47.5,29.95,North,355,4.0,4.0,39,0.00,,,0.00,WUHU216DAVISVP2,2013-02-05 17:27:00,
2013-02-05 11:32:00,74.4,47.7,29.95,NNE,28,1.0,5.0,39,0.00,,,0.00,WUHU216DAVISVP2,2013-02-05 17:32:00,
2013-02-05 11:37:00,74.7,47.4,29.95,NE,52,1.0,5.0,38,0.00,,,0.00,WUHU216DAVISVP2,2013-02-05 17:37:00,
2013-02-05 11:42:00,75.2,48.5,29.95,NNE,17,3.0,5.0,39,0.00,,,0.00,WUHU216DAVISVP2,2013-02-05 17:42:00,
2013-02-05 11:47:00,76.0,47.7,29.95,North,349,2.0,5.0,37,0.00,,,0.00,WUHU216DAVISVP2,2013-02-05 17:47:00,
2013-02-05 11:51:00,76.4,45.8,29.94,ESE,115,2.0,5.0,34,0.00,,,0.00,WUHU216DAVISVP2,2013-02-05 17:51:00,
2013-02-05 11:56:00,76.4,46.6,29.94,WSW,246,0.0,5.0,35,0.00,,,0.00,WUHU216DAVISVP2,2013-02-05 17:56:00,
2013-02-05 12:01:00,76.9,47.0,29.94,WNW,292,3.0,5.0,35,0.00,,,0.00,WUHU216DAVISVP2,2013-02-05 18:01:00,
2013-02-05 12:07:00,77.3,45.8,29.94,North,5,2.0,4.0,33,0.00,,,0.00,WUHU216DAVISVP2,2013-02-05 18:07:00,
2013-02-05 12:12:00,77.6,45.2,29.94,WSW,248,1.0,3.0,32,0.00,,,0.00,WUHU216DAVISVP2,2013-02-05 18:12:00,
2013-02-05 12:18:00,78.1,45.7,29.94,East,82,2.0,4.0,32,0.00,,,0.00,WUHU216DAVISVP2,2013-02-05 18:18:00,
2013-02-05 12:23:00,78.3,45.9,29.94,SSE,158,1.0,4.0,32,0.00,,,0.00,WUHU216DAVISVP2,2013-02-05 18:23:00,
2013-02-05 12:28:00,78.6,45.3,29.93,NNW,333,0.0,4.0,31,0.00,,,0.00,WUHU216DAVISVP2,2013-02-05 18:28:00,
2013-02-05 12:33:00,79.6,46.3,29.93,North,9,4.0,5.0,31,0.00,,,0.00,WUHU216DAVISVP2,2013-02-05 18:33:00,
2013-02-05 12:38:00,80.6,45.4,29.93,North,5,1.0,5.0,29,0.00,,,0.00,WUHU216DAVISVP2,2013-02-05 18:38:00,
2013-02-05 12:43:00,80.7,45.3,29.92,NNE,15,2.0,5.0,29,0.00,,,0.00,WUHU216DAVISVP2,2013-02-05 18:43:00,
2013-02-05 12:48:00,80.4,44.2,29.92,North,355,2.0,5.0,28,0.00,,,0.00,WUHU216DAVISVP2,2013-02-05 18:48:00,
2013-02-05 12:53:00,80.0,41.9,29.92,NW,310,1.0,5.0,26,0.00,,,0.00,WUHU216DAVISVP2,2013-02-05 18:53:00,
2013-02-05 12:59:00,79.6,44.4,29.92,ESE,107,2.0,5.0,29,0.00,,,0.00,WUHU216DAVISVP2,2013-02-05 18:59:00,
2013-02-05 13:04:00,79.4,43.3,29.91,ENE,77,1.0,5.0,28,0.00,,,0.00,WUHU216DAVISVP2,2013-02-05 19:04:00,
2013-02-05 13:09:00,79.0,43.9,29.91,ENE,74,0.0,5.0,29,0.00,,,0.00,WUHU216DAVISVP2,2013-02-05 19:09:00,
2013-02-05 13:14:00,78.8,41.9,29.91,ESE,123,0.0,5.0,27,0.00,,,0.00,WUHU216DAVISVP2,2013-02-05 19:14:00,
2013-02-05 13:19:00,78.9,42.9,29.90,NNE,27,0.0,4.0,28,0.00,,,0.00,WUHU216DAVISVP2,2013-02-05 19:19:00,
2013-02-05 13:24:00,79.4,40.5,29.90,North,355,0.0,4.0,25,0.00,,,0.00,WUHU216DAVISVP2,2013-02-05 19:24:00,
2013-02-05 13:29:00,79.5,39.5,29.90,SW,215,0.0,3.0,24,0.00,,,0.00,WUHU216DAVISVP2,2013-02-05 19:29:00,
2013-02-05 13:34:00,80.2,42.1,29.90,ENE,70,0.0,2.0,26,0.00,,,0.00,WUHU216DAVISVP2,2013-02-05 19:34:00,
2013-02-05 13:39:00,81.0,42.8,29.90,East,82,1.0,2.0,26,0.00,,,0.00,WUHU216DAVISVP2,2013-02-05 19:39:00,
2013-02-05 13:44:00,81.4,44.1,29.90,East,86,0.0,2.0,27,0.00,,,0.00,WUHU216DAVISVP2,2013-02-05 19:44:00,
2013-02-05 13:49:00,81.5,43.2,29.90,NW,305,0.0,3.0,26,0.00,,,0.00,WUHU216DAVISVP2,2013-02-05 19:49:00,
2013-02-05 13:54:00,81.8,41.4,29.89,SE,144,0.0,4.0,24,0.00,,,0.00,WUHU216DAVISVP2,2013-02-05 19:54:00,
2013-02-05 13:59:00,81.8,43.5,29.89,ENE,61,0.0,4.0,26,0.00,,,0.00,WUHU216DAVISVP2,2013-02-05 19:59:00,
2013-02-05 14:04:00,82.0,41.6,29.89,South,191,1.0,4.0,24,0.00,,,0.00,WUHU216DAVISVP2,2013-02-05 20:04:00,
2013-02-05 14:09:00,81.6,37.8,29.89,South,183,0.0,4.0,21,0.00,,,0.00,WUHU216DAVISVP2,2013-02-05 20:09:00,
2013-02-05 14:14:00,81.4,38.9,29.89,South,180,0.0,2.0,22,0.00,,,0.00,WUHU216DAVISVP2,2013-02-05 20:14:00,
2013-02-05 14:19:00,80.9,39.6,29.89,SW,219,0.0,2.0,23,0.00,,,0.00,WUHU216DAVISVP2,2013-02-05 20:19:00,
2013-02-05 14:24:00,80.8,38.4,29.88,SSE,165,0.0,2.0,22,0.00,,,0.00,WUHU216DAVISVP2,2013-02-05 20:24:00,
2013-02-05 14:29:00,80.9,40.6,29.88,SSE,168,1.0,3.0,24,0.00,,,0.00,WUHU216DAVISVP2,2013-02-05 20:29:00,
2013-02-05 14:34:00,80.2,41.1,29.88,South,178,3.0,5.0,25,0.00,,,0.00,WUHU216DAVISVP2,2013-02-05 20:34:00,
2013-02-05 14:39:00,79.7,41.7,29.88,SSE,159,1.0,5.0,26,0.00,,,0.00,WUHU216DAVISVP2,2013-02-05 20:39:00,
2013-02-05 14:44:00,79.4,40.4,29.87,SSE,160,0.0,5.0,25,0.00,,,0.00,WUHU216DAVISVP2,2013-02-05 20:44:00,
2013-02-05 14:49:00,79.4,41.4,29.87,SSE,156,2.0,5.0,26,0.00,,,0.00,WUHU216DAVISVP2,2013-02-05 20:49:00,
2013-02-05 14:54:00,79.4,40.4,29.87,SSE,153,0.0,5.0,25,0.00,,,0.00,WUHU216DAVISVP2,2013-02-05 20:54:00,
2013-02-05 14:59:00,79.4,39.4,29.86,SSE,166,1.0,5.0,24,0.00,,,0.00,WUHU216DAVISVP2,2013-02-05 20:59:00,
2013-02-05 15:04:00,79.1,39.1,29.86,SE,132,2.0,5.0,24,0.00,,,0.00,WUHU216DAVISVP2,2013-02-05 21:04:00,
2013-02-05 15:09:00,78.8,40.0,29.86,South,173,1.0,4.0,25,0.00,,,0.00,WUHU216DAVISVP2,2013-02-05 21:09:00,
2013-02-05 15:14:00,78.6,39.8,29.86,SE,129,3.0,4.0,25,0.00,,,0.00,WUHU216DAVISVP2,2013-02-05 21:14:00,
2013-02-05 15:19:00,78.2,39.4,29.86,SSE,159,2.0,5.0,25,0.00,,,0.00,WUHU216DAVISVP2,2013-02-05 21:19:00,
2013-02-05 15:24:00,78.1,41.3,29.86,SSE,157,1.0,5.0,27,0.00,,,0.00,WUHU216DAVISVP2,2013-02-05 21:24:00,
2013-02-05 15:29:00,78.1,41.3,29.86,SSE,165,0.0,5.0,27,0.00,,,0.00,WUHU216DAVISVP2,2013-02-05 21:29:00,
2013-02-05 15:34:00,78.3,40.5,29.86,SSE,167,0.0,5.0,26,0.00,,,0.00,WUHU216DAVISVP2,2013-02-05 21:34:00,
2013-02-05 15:39:00,78.3,39.5,29.86,SSE,160,1.0,4.0,25,0.00,,,0.00,WUHU216DAVISVP2,2013-02-05 21:39:00,
2013-02-05 15:44:00,78.1,39.3,29.86,SSE,167,0.0,4.0,25,0.00,,,0.00,WUHU216DAVISVP2,2013-02-05 21:44:00,
2013-02-05 15:49:00,77.9,42.0,29.85,SE,136,4.0,4.0,28,0.00,,,0.00,WUHU216DAVISVP2,2013-02-05 21:49:00,
2013-02-05 15:54:00,77.6,39.9,29.85,SSE,151,0.0,5.0,26,0.00,,,0.00,WUHU216DAVISVP2,2013-02-05 21:54:00,
2013-02-05 15:59:00,77.3,40.6,29.85,SE,135,1.0,5.0,27,0.00,,,0.00,WUHU216DAVISVP2,2013-02-05 21:59:00,
2013-02-05 16:04:00,77.2,40.5,29.85,SE,142,2.0,5.0,27,0.00,,,0.00,WUHU216DAVISVP2,2013-02-05 22:04:00,
2013-02-05 16:09:00,77.1,42.2,29.85,SSE,165,0.0,5.0,29,0.00,,,0.00,WUHU216DAVISVP2,2013-02-05 22:09:00,
2013-02-05 16:14:00,77.4,39.7,29.85,SE,132,2.0,3.0,26,0.00,,,0.00,WUHU216DAVISVP2,2013-02-05 22:14:00,
2013-02-05 16:19:00,78.2,41.3,29.85,SSE,155,0.0,3.0,27,0.00,,,0.00,WUHU216DAVISVP2,2013-02-05 22:19:00,
2013-02-05 16:24:00,79.0,42.2,29.85,SSE,150,0.0,3.0,27,0.00,,,0.00,WUHU216DAVISVP2,2013-02-05 22:24:00,
2013-02-05 16:29:00,79.1,40.2,29.85,ESE,103,3.0,4.0,25,0.00,,,0.00,WUHU216DAVISVP2,2013-02-05 22:29:00,
2013-02-05 16:34:00,78.4,40.7,29.86,ESE,109,2.0,5.0,26,0.00,,,0.00,WUHU216DAVISVP2,2013-02-05 22:34:00,
2013-02-05 16:39:00,77.6,40.8,29.86,SE,132,1.0,5.0,27,0.00,,,0.00,WUHU216DAVISVP2,2013-02-05 22:39:00,
2013-02-05 16:44:00,77.0,41.2,29.85,SE,132,0.0,5.0,28,0.00,,,0.00,WUHU216DAVISVP2,2013-02-05 22:44:00,
2013-02-05 16:49:00,76.7,41.0,29.86,SE,132,0.0,5.0,28,0.00,,,0.00,WUHU216DAVISVP2,2013-02-05 22:49:00,
2013-02-05 16:54:00,76.9,41.2,29.85,SE,130,1.0,3.0,28,0.00,,,0.00,WUHU216DAVISVP2,2013-02-05 22:54:00,
2013-02-05 16:59:00,77.7,40.0,29.85,ESE,123,1.0,2.0,26,0.00,,,0.00,WUHU216DAVISVP2,2013-02-05 22:59:00,
2013-02-05 17:04:00,78.4,42.5,29.85,SE,134,0.0,3.0,28,0.00,,,0.00,WUHU216DAVISVP2,2013-02-05 23:04:00,
2013-02-05 17:09:00,78.7,40.8,29.85,SE,130,1.0,4.0,26,0.00,,,0.00,WUHU216DAVISVP2,2013-02-05 23:09:00,
2013-02-05 17:14:00,78.7,40.8,29.85,SE,130,0.0,4.0,26,0.00,,,0.00,WUHU216DAVISVP2,2013-02-05 23:14:00,
2013-02-05 17:19:00,78.4,41.5,29.85,SE,130,2.0,4.0,27,0.00,,,0.00,WUHU216DAVISVP2,2013-02-05 23:19:00,
2013-02-05 17:24:00,77.8,41.0,29.85,SE,129,0.0,4.0,27,0.00,,,0.00,WUHU216DAVISVP2,2013-02-05 23:24:00,
2013-02-05 17:29:00,77.3,39.6,29.85,SE,129,0.0,3.0,26,0.00,,,0.00,WUHU216DAVISVP2,2013-02-05 23:29:00,
2013-02-05 17:34:00,76.9,39.3,29.85,ESE,121,0.0,3.0,26,0.00,,,0.00,WUHU216DAVISVP2,2013-02-05 23:34:00,
2013-02-05 17:39:00,76.6,39.0,29.86,ESE,121,1.0,3.0,26,0.00,,,0.00,WUHU216DAVISVP2,2013-02-05 23:39:00,
2013-02-05 17:44:00,76.2,38.7,29.86,ESE,121,0.0,3.0,26,0.00,,,0.00,WUHU216DAVISVP2,2013-02-05 23:44:00,
2013-02-05 17:49:00,75.8,40.2,29.86,ESE,121,0.0,2.0,28,0.00,,,0.00,WUHU216DAVISVP2,2013-02-05 23:49:00,
2013-02-05 17:54:00,75.5,41.7,29.86,ESE,121,0.0,2.0,30,0.00,,,0.00,WUHU216DAVISVP2,2013-02-05 23:54:00,
2013-02-05 17:59:00,75.0,41.3,29.86,ESE,121,0.0,1.0,30,0.00,,,0.00,WUHU216DAVISVP2,2013-02-05 23:59:00,
2013-02-05 18:04:00,74.6,40.9,29.86,ESE,121,0.0,0.0,30,0.00,,,0.00,WUHU216DAVISVP2,2013-02-06 00:04:00,
2013-02-05 18:09:00,74.0,40.4,29.86,ESE,121,0.0,0.0,30,0.00,,,0.00,WUHU216DAVISVP2,2013-02-06 00:09:00,
2013-02-05 18:14:00,73.4,41.6,29.86,ESE,121,0.0,0.0,32,0.00,,,0.00,WUHU216DAVISVP2,2013-02-06 00:14:00,
2013-02-05 18:19:00,72.8,41.8,29.86,ESE,121,0.0,0.0,33,0.00,,,0.00,WUHU216DAVISVP2,2013-02-06 00:19:00,
2013-02-05 18:24:00,72.2,40.5,29.86,ESE,121,0.0,0.0,32,0.00,,,0.00,WUHU216DAVISVP2,2013-02-06 00:24:00,
2013-02-05 18:29:00,71.7,41.7,29.86,ESE,121,0.0,0.0,34,0.00,,,0.00,WUHU216DAVISVP2,2013-02-06 00:29:00,
2013-02-05 18:34:00,71.2,41.2,29.86,ESE,121,0.0,0.0,34,0.00,,,0.00,WUHU216DAVISVP2,2013-02-06 00:34:00,
2013-02-05 18:39:00,70.8,41.6,29.86,ESE,121,0.0,0.0,35,0.00,,,0.00,WUHU216DAVISVP2,2013-02-06 00:39:00,
2013-02-05 18:44:00,70.5,42.1,29.87,ESE,121,0.0,0.0,36,0.00,,,0.00,WUHU216DAVISVP2,2013-02-06 00:44:00,
2013-02-05 18:49:00,70.1,42.5,29.87,ESE,121,0.0,0.0,37,0.00,,,0.00,WUHU216DAVISVP2,2013-02-06 00:49:00,
2013-02-05 18:54:00,69.9,42.3,29.87,ESE,121,0.0,0.0,37,0.00,,,0.00,WUHU216DAVISVP2,2013-02-06 00:54:00,
2013-02-05 18:59:00,69.7,42.1,29.87,ESE,121,0.0,0.0,37,0.00,,,0.00,WUHU216DAVISVP2,2013-02-06 00:59:00,
2013-02-05 19:04:00,69.6,42.7,29.87,ESE,121,0.0,0.0,38,0.00,,,0.00,WUHU216DAVISVP2,2013-02-06 01:04:00,
2013-02-05 19:09:00,69.5,41.9,29.88,ESE,121,0.0,0.0,37,0.00,,,0.00,WUHU216DAVISVP2,2013-02-06 01:09:00,
2013-02-05 19:14:00,69.5,41.9,29.88,ESE,121,0.0,0.0,37,0.00,,,0.00,WUHU216DAVISVP2,2013-02-06 01:14:00,
2013-02-05 19:19:00,69.4,42.5,29.88,ESE,121,0.0,0.0,38,0.00,,,0.00,WUHU216DAVISVP2,2013-02-06 01:19:00,
2013-02-05 19:24:00,69.3,43.8,29.88,ESE,121,0.0,0.0,40,0.00,,,0.00,WUHU216DAVISVP2,2013-02-06 01:24:00,
2013-02-05 19:29:00,69.1,42.3,29.88,ESE,121,0.0,0.0,38,0.00,,,0.00,WUHU216DAVISVP2,2013-02-06 01:29:00,
2013-02-05 19:34:00,68.8,43.4,29.89,East,96,0.0,1.0,40,0.00,,,0.00,WUHU216DAVISVP2,2013-02-06 01:34:00,
2013-02-05 19:39:00,68.4,43.0,29.89,NNE,33,0.0,2.0,40,0.00,,,0.00,WUHU216DAVISVP2,2013-02-06 01:39:00,
2013-02-05 19:44:00,68.4,43.7,29.89,East,91,1.0,2.0,41,0.00,,,0.00,WUHU216DAVISVP2,2013-02-06 01:44:00,
2013-02-05 19:49:00,68.4,44.9,29.89,East,91,0.0,2.0,43,0.00,,,0.00,WUHU216DAVISVP2,2013-02-06 01:49:00,
2013-02-05 19:54:00,68.0,44.6,29.89,East,84,0.0,2.0,43,0.00,,,0.00,WUHU216DAVISVP2,2013-02-06 01:54:00,
2013-02-05 19:59:00,67.9,43.9,29.89,East,84,0.0,2.0,42,0.00,,,0.00,WUHU216DAVISVP2,2013-02-06 01:59:00,
2013-02-05 20:05:00,67.9,43.9,29.89,East,84,0.0,1.0,42,0.00,,,0.00,WUHU216DAVISVP2,2013-02-06 02:05:00,
2013-02-05 20:09:00,67.7,43.7,29.90,East,84,0.0,1.0,42,0.00,,,0.00,WUHU216DAVISVP2,2013-02-06 02:09:00,
2013-02-05 20:14:00,67.5,43.5,29.90,East,84,0.0,0.0,42,0.00,,,0.00,WUHU216DAVISVP2,2013-02-06 02:14:00,
2013-02-05 20:19:00,67.3,43.3,29.90,East,84,0.0,0.0,42,0.00,,,0.00,WUHU216DAVISVP2,2013-02-06 02:19:00,
2013-02-05 20:24:00,67.1,43.8,29.90,East,84,0.0,0.0,43,0.00,,,0.00,WUHU216DAVISVP2,2013-02-06 02:24:00,
2013-02-05 20:29:00,66.9,43.6,29.91,East,84,0.0,0.0,43,0.00,,,0.00,WUHU216DAVISVP2,2013-02-06 02:29:00,
2013-02-05 20:34:00,66.8,43.5,29.91,East,84,0.0,0.0,43,0.00,,,0.00,WUHU216DAVISVP2,2013-02-06 02:34:00,
2013-02-05 20:39:00,66.8,44.1,29.92,East,84,0.0,0.0,44,0.00,,,0.00,WUHU216DAVISVP2,2013-02-06 02:39:00,
2013-02-05 20:45:00,66.8,44.8,29.91,East,83,0.0,1.0,45,0.00,,,0.00,WUHU216DAVISVP2,2013-02-06 02:45:00,
2013-02-05 20:50:00,66.9,44.2,29.92,East,82,0.0,1.0,44,0.00,,,0.00,WUHU216DAVISVP2,2013-02-06 02:50:00,
2013-02-05 20:55:00,67.0,44.4,29.92,East,81,0.0,1.0,44,0.00,,,0.00,WUHU216DAVISVP2,2013-02-06 02:55:00,
2013-02-05 21:00:00,67.0,44.9,29.92,ENE,66,0.0,1.0,45,0.00,,,0.00,WUHU216DAVISVP2,2013-02-06 03:00:00,
2013-02-05 21:05:00,67.1,45.0,29.92,NE,38,0.0,1.0,45,0.00,,,0.00,WUHU216DAVISVP2,2013-02-06 03:05:00,
2013-02-05 21:10:00,67.1,46.2,29.92,NE,34,0.0,1.0,47,0.00,,,0.00,WUHU216DAVISVP2,2013-02-06 03:10:00,
2013-02-05 21:15:00,67.1,47.3,29.92,NE,34,0.0,1.0,49,0.00,,,0.00,WUHU216DAVISVP2,2013-02-06 03:15:00,
2013-02-05 21:20:00,67.0,47.2,29.92,NNE,15,1.0,3.0,49,0.00,,,0.00,WUHU216DAVISVP2,2013-02-06 03:20:00,
2013-02-05 21:25:00,66.8,47.0,29.91,North,355,2.0,4.0,49,0.00,,,0.00,WUHU216DAVISVP2,2013-02-06 03:25:00,
2013-02-05 21:30:00,66.8,45.9,29.92,North,11,1.0,5.0,47,0.00,,,0.00,WUHU216DAVISVP2,2013-02-06 03:30:00,
2013-02-05 21:35:00,66.9,46.0,29.92,NNE,17,1.0,5.0,47,0.00,,,0.00,WUHU216DAVISVP2,2013-02-06 03:35:00,
2013-02-05 21:40:00,67.1,46.8,29.92,NNE,16,0.0,5.0,48,0.00,,,0.00,WUHU216DAVISVP2,2013-02-06 03:40:00,
2013-02-05 21:45:00,67.2,46.9,29.92,NE,55,1.0,5.0,48,0.00,,,0.00,WUHU216DAVISVP2,2013-02-06 03:45:00,
2013-02-05 21:50:00,67.2,47.4,29.92,NE,54,0.0,3.0,49,0.00,,,0.00,WUHU216DAVISVP2,2013-02-06 03:50:00,
2013-02-05 21:55:00,67.1,47.3,29.92,NE,54,1.0,3.0,49,0.00,,,0.00,WUHU216DAVISVP2,2013-02-06 03:55:00,
2013-02-05 22:00:00,66.8,48.1,29.92,NE,52,1.0,3.0,51,0.00,,,0.00,WUHU216DAVISVP2,2013-02-06 04:00:00,
2013-02-05 22:05:00,66.7,47.5,29.93,NE,49,0.0,3.0,50,0.00,,,0.00,WUHU216DAVISVP2,2013-02-06 04:05:00,
2013-02-05 22:10:00,66.6,46.3,29.93,NE,42,0.0,3.0,48,0.00,,,0.00,WUHU216DAVISVP2,2013-02-06 04:10:00,
2013-02-05 22:15:00,66.6,47.4,29.93,NE,44,0.0,2.0,50,0.00,,,0.00,WUHU216DAVISVP2,2013-02-06 04:15:00,
2013-02-05 22:20:00,66.4,47.2,29.93,NE,44,0.0,2.0,50,0.00,,,0.00,WUHU216DAVISVP2,2013-02-06 04:20:00,
2013-02-05 22:25:00,66.3,46.6,29.93,NE,44,0.0,2.0,49,0.00,,,0.00,WUHU216DAVISVP2,2013-02-06 04:25:00,
2013-02-05 22:30:00,66.1,47.0,29.94,NE,44,0.0,2.0,50,0.00,,,0.00,WUHU216DAVISVP2,2013-02-06 04:30:00,
2013-02-05 22:35:00,66.0,46.3,29.94,NE,44,0.0,0.0,49,0.00,,,0.00,WUHU216DAVISVP2,2013-02-06 04:35:00,
2013-02-05 22:40:00,66.0,47.9,29.95,NE,44,1.0,2.0,52,0.00,,,0.00,WUHU216DAVISVP2,2013-02-06 04:40:00,
2013-02-05 22:45:00,65.9,48.4,29.96,NE,42,0.0,2.0,53,0.00,,,0.00,WUHU216DAVISVP2,2013-02-06 04:45:00,
2013-02-05 22:50:00,65.3,51.2,29.97,East,96,0.0,2.0,60,0.01,,,0.01,WUHU216DAVISVP2,2013-02-06 04:50:00,
2013-02-05 22:55:00,64.1,51.8,29.97,WSW,237,0.0,2.0,64,0.02,,,0.02,WUHU216DAVISVP2,2013-02-06 04:55:00,
2013-02-05 23:00:00,63.2,52.2,29.97,SSW,209,0.0,2.0,67,0.02,,,0.02,WUHU216DAVISVP2,2013-02-06 05:00:00,
2013-02-05 23:05:00,62.3,52.9,29.97,SSW,209,0.0,2.0,71,0.02,,,0.02,WUHU216DAVISVP2,2013-02-06 05:05:00,
2013-02-05 23:10:00,61.8,53.2,29.97,SSW,209,0.0,2.0,73,0.02,,,0.02,WUHU216DAVISVP2,2013-02-06 05:10:00,
2013-02-05 23:15:00,61.2,53.7,29.97,SSW,209,0.0,1.0,76,0.02,,,0.02,WUHU216DAVISVP2,2013-02-06 05:15:00,
2013-02-05 23:20:00,61.1,53.5,29.97,SSW,209,0.0,1.0,76,0.02,,,0.02,WUHU216DAVISVP2,2013-02-06 05:20:00,
2013-02-05 23:25:00,60.6,53.7,29.96,WNW,288,2.0,4.0,78,0.03,,,0.03,WUHU216DAVISVP2,2013-02-06 05:25:00,
2013-02-05 23:30:00,60.4,53.9,29.97,West,279,0.0,4.0,79,0.03,,,0.03,WUHU216DAVISVP2,2013-02-06 05:30:00,
2013-02-05 23:35:00,60.3,53.8,29.97,WSW,245,0.0,4.0,79,0.03,,,0.03,WUHU216DAVISVP2,2013-02-06 05:35:00,
2013-02-05 23:40:00,60.2,54.1,29.96,West,261,0.0,4.0,80,0.03,,,0.03,WUHU216DAVISVP2,2013-02-06 05:40:00,
2013-02-05 23:45:00,60.3,54.5,29.97,SW,235,0.0,2.0,81,0.04,,,0.04,WUHU216DAVISVP2,2013-02-06 05:45:00,
2013-02-05 23:50:00,60.2,55.0,29.97,SW,236,0.0,1.0,83,0.03,,,0.04,WUHU216DAVISVP2,2013-02-06 05:50:00,
2013-02-05 23:55:00,60.1,54.9,29.97,SW,235,0.0,1.0,83,0.02,,,0.04,WUHU216DAVISVP2,2013-02-06 05:55:00,